Time;durP1;ratioP1;P1;durP2;ratioP2;P2;SDS_P1;SDS_P2;PMS_P1;PMS_P2;Temp;Humidity;BMP_temperature;BMP_pressure;BME280_temperature;BME280_humidity;BME280_pressure;Samples;Min_cycle;Max_cycle;Signal;HPM_P1;HPM_P2
2021/09/23 00:01:04;;;;;;;14.18;8.27;;;;;;;8.50;100.00;95296.69;5076165;28;20114;-73
2021/09/23 00:03:44;;;;;;;16.40;7.78;;;;;;;8.33;100.00;95290.31;5083571;28;20055;-73
2021/09/23 00:06:11;;;;;;;12.20;6.80;;;;;;;8.24;100.00;95290.53;5084806;28;20044;-72
2021/09/23 00:08:38;;;;;;;11.55;6.38;;;;;;;8.24;100.00;95292.34;5075737;28;20036;-72
2021/09/23 00:11:07;;;;;;;14.73;7.70;;;;;;;8.12;100.00;95289.59;5084282;28;20055;-72
2021/09/23 00:13:34;;;;;;;12.40;7.15;;;;;;;8.17;100.00;95296.75;5076649;28;20066;-71
2021/09/23 00:16:01;;;;;;;13.32;7.03;;;;;;;8.14;100.00;95307.53;5063577;28;20057;-72
2021/09/23 00:18:31;;;;;;;11.63;6.55;;;;;;;8.10;100.00;95290.78;5065777;28;20040;-72
2021/09/23 00:20:58;;;;;;;14.13;7.47;;;;;;;8.00;100.00;95292.00;5080428;28;20048;-71
2021/09/23 00:23:26;;;;;;;13.70;7.28;;;;;;;7.99;100.00;95297.41;5070675;28;20120;-72
2021/09/23 00:25:53;;;;;;;12.57;5.88;;;;;;;8.03;100.00;95295.97;5083511;28;20071;-72
2021/09/23 00:28:22;;;;;;;12.82;6.47;;;;;;;8.05;100.00;95294.00;5073221;28;20085;-72
2021/09/23 00:30:49;;;;;;;12.52;6.53;;;;;;;7.99;100.00;95284.44;5077892;28;20536;-71
2021/09/23 00:33:16;;;;;;;13.70;6.63;;;;;;;7.91;100.00;95284.66;5078525;28;20136;-72
2021/09/23 00:35:43;;;;;;;11.98;7.60;;;;;;;7.94;100.00;95276.44;5085721;28;20054;-72
2021/09/23 00:38:10;;;;;;;16.92;7.57;;;;;;;7.99;100.00;95287.03;5074584;28;20044;-72
2021/09/23 00:40:37;;;;;;;12.95;6.95;;;;;;;7.87;100.00;95275.66;5072122;28;20508;-72
2021/09/23 00:43:05;;;;;;;13.00;5.97;;;;;;;7.92;100.00;95294.03;5077762;28;20043;-72
2021/09/23 00:45:32;;;;;;;14.27;6.75;;;;;;;7.85;100.00;95279.28;5074177;28;20040;-72
2021/09/23 00:48:00;;;;;;;11.45;6.93;;;;;;;7.90;100.00;95290.84;5074720;28;20048;-72
2021/09/23 00:50:27;;;;;;;10.82;6.25;;;;;;;7.85;100.00;95279.28;5086310;28;20414;-72
2021/09/23 00:53:02;;;;;;;13.48;7.30;;;;;;;7.88;100.00;95285.06;5079832;28;20053;-72
2021/09/23 00:55:29;;;;;;;11.82;7.00;;;;;;;7.90;100.00;95288.25;5070770;28;20068;-72
2021/09/23 00:57:57;;;;;;;11.75;6.43;;;;;;;7.79;100.00;95274.09;5075615;28;20475;-72
2021/09/23 01:00:25;;;;;;;15.68;6.30;;;;;;;7.82;100.00;95266.72;5083318;28;20063;-72
2021/09/23 01:03:02;;;;;;;12.40;6.10;;;;;;;7.92;100.00;95278.47;5077608;28;20056;-72
2021/09/23 01:05:30;;;;;;;11.60;5.35;;;;;;;7.88;100.00;95282.47;5067827;28;20421;-72
2021/09/23 01:07:58;;;;;;;12.63;5.90;;;;;;;7.93;100.00;95274.88;5069027;28;20068;-72
2021/09/23 01:10:25;;;;;;;11.45;6.60;;;;;;;8.04;100.00;95279.44;5079228;28;20037;-72
2021/09/23 01:12:52;;;;;;;9.13;5.00;;;;;;;7.98;100.00;95280.25;5069033;28;20051;-72
2021/09/23 01:15:20;;;;;;;8.70;4.85;;;;;;;7.91;100.00;95271.69;5075942;28;20044;-72
2021/09/23 01:17:49;;;;;;;9.77;5.50;;;;;;;7.91;100.00;95292.44;5071890;28;20502;-72
2021/09/23 01:20:18;;;;;;;11.50;6.32;;;;;;;8.01;100.00;95298.00;5075675;28;20044;-72
2021/09/23 01:22:47;;;;;;;10.00;5.30;;;;;;;8.03;100.00;95290.78;5076594;28;20051;-72
2021/09/23 01:25:18;;;;;;;7.78;4.78;;;;;;;8.06;100.00;95284.41;5080801;28;20631;-72
2021/09/23 01:27:46;;;;;;;9.90;4.80;;;;;;;7.95;100.00;95278.84;5067609;28;20044;-72
2021/09/23 01:30:37;;;;;;;9.60;5.30;;;;;;;7.89;100.00;95273.69;5071588;28;20132;-73
2021/09/23 01:33:04;;;;;;;8.50;5.70;;;;;;;7.95;100.00;95283.25;5081550;28;20067;-73
2021/09/23 01:35:32;;;;;;;7.70;5.13;;;;;;;8.01;100.00;95287.59;5077451;28;20050;-73
2021/09/23 01:38:01;;;;;;;8.82;4.80;;;;;;;7.95;100.00;95272.88;5073053;28;20505;-73
2021/09/23 01:40:28;;;;;;;8.02;4.32;;;;;;;8.03;100.00;95280.41;5080191;28;20032;-72
2021/09/23 01:42:55;;;;;;;7.57;4.05;;;;;;;7.87;100.00;95270.47;5065128;28;20053;-72
2021/09/23 01:45:22;;;;;;;10.82;4.82;;;;;;;8.02;100.00;95289.22;5074587;28;20047;-73
2021/09/23 01:47:50;;;;;;;6.90;4.18;;;;;;;8.10;100.00;95291.56;5082629;28;20509;-73
2021/09/23 01:50:21;;;;;;;7.88;4.25;;;;;;;8.21;100.00;95288.38;5081027;28;20072;-72
2021/09/23 01:52:52;;;;;;;8.40;3.67;;;;;;;8.24;100.00;95281.97;5076812;28;20040;-72
2021/09/23 01:55:19;;;;;;;7.93;5.05;;;;;;;8.28;100.00;95282.34;5070548;28;20476;-72
2021/09/23 01:57:48;;;;;;;5.88;4.03;;;;;;;8.27;100.00;95280.78;5074448;28;20482;-72
2021/09/23 02:00:16;;;;;;;7.90;3.72;;;;;;;8.32;100.00;95278.34;5076766;28;20465;-72
2021/09/23 02:02:49;;;;;;;7.50;4.20;;;;;;;8.35;100.00;95272.75;5083578;28;20070;-72
2021/09/23 02:05:40;;;;;;;6.22;3.47;;;;;;;8.30;100.00;95275.97;5066397;28;20052;-72
2021/09/23 02:08:08;;;;;;;9.07;4.15;;;;;;;8.22;100.00;95274.38;5077045;28;20071;-72
2021/09/23 02:10:35;;;;;;;9.60;3.40;;;;;;;8.29;100.00;95278.78;5075141;28;20040;-71
2021/09/23 02:13:02;;;;;;;6.50;3.35;;;;;;;8.23;100.00;95276.00;5074686;28;20080;-71
2021/09/23 02:15:30;;;;;;;9.15;4.00;;;;;;;8.23;100.00;95270.78;5071715;28;20428;-72
2021/09/23 02:17:57;;;;;;;5.95;3.38;;;;;;;8.30;100.00;95275.16;5078763;28;20134;-71
2021/09/23 02:20:28;;;;;;;4.57;2.58;;;;;;;8.36;100.00;95275.13;5075719;28;20123;-71
2021/09/23 02:22:55;;;;;;;5.10;2.75;;;;;;;8.22;100.00;95264.00;5072330;28;20064;-71
2021/09/23 02:25:29;;;;;;;5.25;3.10;;;;;;;8.33;100.00;95274.75;5077140;28;20080;-71
2021/09/23 02:27:56;;;;;;;5.35;3.00;;;;;;;8.31;100.00;95272.34;5078027;28;20042;-71
2021/09/23 02:30:24;;;;;;;4.38;2.30;;;;;;;8.24;100.00;95261.22;5072330;28;20046;-72
2021/09/23 02:32:51;;;;;;;3.75;2.83;;;;;;;8.21;100.00;95257.22;5076346;28;20074;-72
2021/09/23 02:35:18;;;;;;;4.28;2.50;;;;;;;8.27;100.00;95271.19;5069443;28;20044;-72
2021/09/23 02:37:45;;;;;;;6.13;2.97;;;;;;;8.20;100.00;95280.78;5063577;28;20049;-71
2021/09/23 02:40:12;;;;;;;6.75;2.63;;;;;;;8.12;100.00;95274.03;5063161;28;20044;-72
2021/09/23 02:42:42;;;;;;;5.38;2.63;;;;;;;8.13;100.00;95286.00;5105552;27;20043;-72
2021/09/23 02:45:10;;;;;;;5.43;3.00;;;;;;;8.17;100.00;95286.38;5073151;28;20580;-71
2021/09/23 02:47:37;;;;;;;4.50;2.35;;;;;;;8.05;100.00;95283.63;5075882;28;20055;-71
2021/09/23 02:50:05;;;;;;;4.13;2.90;;;;;;;8.10;100.00;95286.38;5075608;28;20082;-71
2021/09/23 02:52:32;;;;;;;4.00;2.42;;;;;;;7.88;100.00;95266.91;5068944;28;20539;-71
2021/09/23 02:54:59;;;;;;;4.78;2.70;;;;;;;7.96;100.00;95279.63;5066880;28;20055;-70
2021/09/23 02:57:26;;;;;;;5.45;2.92;;;;;;;7.89;100.00;95273.69;5072412;28;20044;-71
2021/09/23 02:59:53;;;;;;;4.85;2.30;;;;;;;7.96;100.00;95284.81;5074337;28;20032;-72
2021/09/23 03:02:19;;;;;;;6.82;2.90;;;;;;;7.85;100.00;95278.50;5072684;28;20047;-71
2021/09/23 03:04:47;;;;;;;4.28;2.40;;;;;;;7.92;100.00;95273.28;5078364;28;20044;-71
2021/09/23 03:07:15;;;;;;;5.50;2.97;;;;;;;7.90;100.00;95275.28;5075287;28;20055;-71
2021/09/23 03:09:41;;;;;;;4.97;3.15;;;;;;;7.96;100.00;95279.63;5073092;28;20408;-71
2021/09/23 03:12:08;;;;;;;5.63;3.53;;;;;;;8.06;100.00;95290.41;5065536;28;20414;-71
2021/09/23 03:14:36;;;;;;;4.28;2.05;;;;;;;8.10;100.00;95285.59;5072292;28;20044;-71
2021/09/23 03:17:03;;;;;;;5.13;3.10;;;;;;;8.10;100.00;95281.19;5075416;28;20052;-71
2021/09/23 03:19:30;;;;;;;4.63;2.38;;;;;;;8.12;100.00;95284.41;5073606;28;20036;-71
2021/09/23 03:21:56;;;;;;;6.55;2.72;;;;;;;8.08;100.00;95272.03;5103365;27;20066;-70
2021/09/23 03:24:23;;;;;;;5.13;2.63;;;;;;;8.10;100.00;95280.41;5079580;28;20048;-71
2021/09/23 03:26:50;;;;;;;4.60;2.50;;;;;;;8.13;100.00;95280.81;5072815;28;20075;-71
2021/09/23 03:29:17;;;;;;;3.63;2.35;;;;;;;8.20;100.00;95281.56;5069600;28;20043;-71
2021/09/23 03:31:44;;;;;;;4.68;2.58;;;;;;;8.14;100.00;95266.84;5064716;28;20032;-71
2021/09/23 03:34:11;;;;;;;4.55;2.75;;;;;;;8.17;100.00;95271.59;5071828;28;20040;-70
2021/09/23 03:36:38;;;;;;;5.07;3.05;;;;;;;8.18;100.00;95268.00;5068722;28;20037;-71
2021/09/23 03:39:06;;;;;;;3.50;2.40;;;;;;;8.16;100.00;95264.84;5072651;28;20139;-71
2021/09/23 03:41:33;;;;;;;5.30;2.78;;;;;;;8.14;100.00;95266.84;5080584;28;20055;-71
2021/09/23 03:44:00;;;;;;;5.72;2.65;;;;;;;7.92;100.00;95262.91;5075025;28;20390;-71
2021/09/23 03:46:27;;;;;;;5.18;2.83;;;;;;;7.98;100.00;95254.31;5077842;28;20040;-71
2021/09/23 03:48:54;;;;;;;4.35;2.78;;;;;;;7.89;100.00;95243.38;5081822;28;20050;-71
2021/09/23 03:51:22;;;;;;;8.30;4.07;;;;;;;7.88;100.00;95261.72;5077680;28;20052;-71
2021/09/23 03:53:49;;;;;;;5.35;2.88;;;;;;;7.82;100.00;95274.50;5066562;28;20048;-70
2021/09/23 03:56:16;;;;;;;4.50;2.40;;;;;;;7.76;100.00;95277.91;5063890;28;20047;-71
2021/09/23 03:58:46;;;;;;;5.25;3.00;;;;;;;7.71;100.00;95275.13;5075658;28;20492;-70
2021/09/23 04:01:13;;;;;;;8.55;3.08;;;;;;;7.73;100.00;95280.88;5074649;28;20040;-71
2021/09/23 04:03:41;;;;;;;6.15;3.05;;;;;;;7.60;100.00;95276.53;5072176;28;20131;-71
2021/09/23 04:06:09;;;;;;;9.30;3.60;;;;;;;7.65;100.00;95281.09;5080896;28;20050;-71
2021/09/23 04:08:36;;;;;;;5.05;3.28;;;;;;;7.69;100.00;95284.91;5086037;28;20112;-70
2021/09/23 04:11:12;;;;;;;7.40;3.08;;;;;;;7.67;100.00;95276.53;5083363;28;20044;-71
2021/09/23 04:13:39;;;;;;;4.43;2.40;;;;;;;7.72;100.00;95284.47;5073306;28;20056;-71
2021/09/23 04:16:06;;;;;;;7.07;2.58;;;;;;;7.73;100.00;95283.47;5080179;28;20652;-71
2021/09/23 04:18:33;;;;;;;4.15;2.35;;;;;;;7.84;100.00;95282.84;5085595;28;20052;-71
2021/09/23 04:21:00;;;;;;;5.20;3.30;;;;;;;7.99;100.00;95302.59;5070368;28;20055;-71
2021/09/23 04:23:26;;;;;;;5.45;3.08;;;;;;;7.96;100.00;95290.84;5081726;28;20421;-71
2021/09/23 04:25:53;;;;;;;7.70;3.75;;;;;;;8.04;100.00;95308.75;5079140;28;20054;-71
2021/09/23 04:28:20;;;;;;;6.55;3.10;;;;;;;8.04;100.00;95313.16;5077706;28;20131;-71
2021/09/23 04:30:49;;;;;;;6.82;3.15;;;;;;;8.13;100.00;95317.13;5084145;28;20033;-71
2021/09/23 04:33:16;;;;;;;3.63;2.53;;;;;;;8.09;100.00;95307.38;5078688;28;20121;-71
2021/09/23 04:35:45;;;;;;;5.28;2.90;;;;;;;8.09;100.00;95315.94;5084354;28;20044;-71
2021/09/23 04:38:17;;;;;;;8.85;3.47;;;;;;;8.12;100.00;95305.16;5074460;28;20056;-71
2021/09/23 04:40:45;;;;;;;6.13;3.58;;;;;;;8.15;100.00;95311.72;5080713;28;20040;-71
2021/09/23 04:43:12;;;;;;;6.10;2.78;;;;;;;8.16;100.00;95316.72;5079681;28;20139;-71
2021/09/23 04:45:39;;;;;;;5.22;3.00;;;;;;;8.18;100.00;95317.31;5081105;28;20462;-71
2021/09/23 04:48:06;;;;;;;7.13;4.15;;;;;;;8.30;100.00;95332.25;5071197;28;20056;-71
2021/09/23 04:50:32;;;;;;;7.35;3.35;;;;;;;8.26;100.00;95341.44;5079786;28;20067;-72
2021/09/23 04:53:05;;;;;;;5.90;3.30;;;;;;;8.24;100.00;95339.84;5077092;28;20421;-72
2021/09/23 04:55:32;;;;;;;4.63;2.65;;;;;;;8.41;100.00;95357.59;5070732;28;20040;-72
2021/09/23 04:58:00;;;;;;;3.60;2.38;;;;;;;8.37;100.00;95356.38;5076198;28;20068;-72
2021/09/23 05:00:27;;;;;;;6.80;3.47;;;;;;;8.32;100.00;95351.81;5073304;28;20126;-72
2021/09/23 05:02:54;;;;;;;5.22;3.10;;;;;;;8.40;100.00;95358.59;5060017;28;20058;-72
2021/09/23 05:05:27;;;;;;;5.03;3.58;;;;;;;8.43;100.00;95368.59;5077206;28;20048;-71
2021/09/23 05:07:54;;;;;;;5.13;3.10;;;;;;;8.39;100.00;95367.34;5075265;28;20131;-71
2021/09/23 05:10:21;;;;;;;5.00;2.75;;;;;;;8.45;100.00;95371.78;5084982;28;20040;-71
2021/09/23 05:12:48;;;;;;;6.30;3.28;;;;;;;8.41;100.00;95370.56;5086610;28;20040;-71
2021/09/23 05:15:15;;;;;;;5.25;2.88;;;;;;;8.42;100.00;95372.19;5073907;28;20448;-71
2021/09/23 05:17:46;;;;;;;6.82;3.30;;;;;;;8.53;100.00;95399.31;5071713;28;20052;-71
2021/09/23 05:20:14;;;;;;;4.95;3.40;;;;;;;8.42;100.00;95382.56;5078584;28;20039;-71
2021/09/23 05:22:41;;;;;;;7.13;3.92;;;;;;;8.37;100.00;95401.34;5084422;28;20111;-71
2021/09/23 05:25:09;;;;;;;5.72;3.55;;;;;;;8.39;100.00;95393.31;5076197;28;20044;-70
2021/09/23 05:27:40;;;;;;;4.38;2.85;;;;;;;8.31;100.00;95391.75;5087405;28;20481;-71
2021/09/23 05:30:12;;;;;;;6.82;4.03;;;;;;;8.35;100.00;95386.94;5081460;28;20546;-71
2021/09/23 05:32:40;;;;;;;10.98;3.50;;;;;;;8.36;100.00;95398.94;5077358;28;20119;-71
2021/09/23 05:35:08;;;;;;;7.43;3.35;;;;;;;8.41;100.00;95396.53;5081621;28;20456;-71
2021/09/23 05:37:37;;;;;;;5.07;3.03;;;;;;;8.32;100.00;95392.53;5078075;28;20059;-75
2021/09/23 05:40:06;;;;;;;7.97;3.38;;;;;;;8.39;100.00;95388.94;5080710;28;20513;-71
2021/09/23 05:42:34;;;;;;;6.45;2.97;;;;;;;8.41;100.00;95402.50;5077117;28;20048;-72
2021/09/23 05:45:06;;;;;;;6.47;3.50;;;;;;;8.51;100.00;95415.09;5075711;28;20539;-72
2021/09/23 05:47:34;;;;;;;6.25;4.18;;;;;;;8.48;100.00;95407.72;5082511;28;20404;-71
2021/09/23 05:50:01;;;;;;;6.60;4.07;;;;;;;8.53;100.00;95415.69;5074473;28;20048;-71
2021/09/23 05:52:28;;;;;;;5.88;3.95;;;;;;;8.48;100.00;95418.13;5077144;28;20037;-71
2021/09/23 05:54:54;;;;;;;5.47;3.33;;;;;;;8.54;100.00;95417.28;5077824;28;20498;-72
2021/09/23 05:57:26;;;;;;;6.25;3.45;;;;;;;8.56;100.00;95404.91;5067567;28;20162;-71
2021/09/23 05:59:52;;;;;;;8.05;4.18;;;;;;;8.60;100.00;95420.88;5071021;28;20043;-72
2021/09/23 06:02:19;;;;;;;6.38;3.92;;;;;;;8.68;100.00;95422.44;5069917;28;20047;-72
2021/09/23 06:04:48;;;;;;;6.97;3.88;;;;;;;8.59;100.00;95420.06;5074068;28;20049;-71
2021/09/23 06:07:16;;;;;;;5.95;3.50;;;;;;;8.67;100.00;95426.06;5074384;28;20109;-71
2021/09/23 06:09:44;;;;;;;6.10;3.55;;;;;;;8.75;100.00;95424.03;5065827;28;20048;-71
2021/09/23 06:12:10;;;;;;;9.25;4.20;;;;;;;8.63;100.00;95427.47;5080146;28;20111;-71
2021/09/23 06:14:37;;;;;;;5.75;2.85;;;;;;;8.52;100.00;95424.50;5074990;28;20043;-71
2021/09/23 06:17:04;;;;;;;5.32;3.55;;;;;;;8.69;100.00;95440.41;5075049;28;20044;-71
2021/09/23 06:19:31;;;;;;;6.32;3.67;;;;;;;8.67;100.00;95431.25;5077910;28;20047;-70
2021/09/23 06:21:58;;;;;;;6.68;3.15;;;;;;;8.69;100.00;95447.41;5074705;28;20033;-70
2021/09/23 06:24:25;;;;;;;6.13;3.67;;;;;;;8.76;100.00;95448.19;5077562;28;20047;-71
2021/09/23 06:26:53;;;;;;;6.68;3.45;;;;;;;8.74;100.00;95442.41;5074268;28;20437;-72
2021/09/23 06:29:20;;;;;;;8.30;4.18;;;;;;;8.86;100.00;95443.38;5079334;28;20425;-71
2021/09/23 06:31:47;;;;;;;6.60;3.13;;;;;;;8.97;100.00;95452.34;5072153;28;20040;-71
2021/09/23 06:34:14;;;;;;;4.90;3.33;;;;;;;8.98;100.00;95433.13;5079098;28;20433;-71
2021/09/23 06:36:41;;;;;;;5.38;3.60;;;;;;;9.04;100.00;95428.91;5064482;28;20044;-72
2021/09/23 06:39:07;;;;;;;6.00;3.47;;;;;;;9.09;100.00;95449.88;5072070;28;20056;-71
2021/09/23 06:41:34;;;;;;;5.10;3.25;;;;;;;9.21;100.00;95450.84;5070315;28;20119;-71
2021/09/23 06:44:04;;;;;;;5.28;3.30;;;;;;;9.26;99.85;95443.22;5068674;28;20114;-71
2021/09/23 06:46:31;;;;;;;6.22;3.30;;;;;;;9.35;99.55;95443.78;5072259;28;20498;-71
2021/09/23 06:48:58;;;;;;;6.75;3.75;;;;;;;9.37;99.24;95436.56;5082839;28;20039;-72
2021/09/23 06:51:25;;;;;;;6.15;3.42;;;;;;;9.57;99.72;95441.66;5081144;28;20036;-71
2021/09/23 06:54:06;;;;;;;5.20;3.00;;;;;;;9.59;98.40;95450.03;5084372;28;20520;-72
2021/09/23 06:56:33;;;;;;;7.68;3.88;;;;;;;9.50;97.30;95446.09;5068991;28;20044;-71
2021/09/23 06:59:00;;;;;;;7.25;3.47;;;;;;;9.61;96.50;95452.44;5076887;28;20051;-71
2021/09/23 07:01:30;;;;;;;6.20;3.47;;;;;;;9.65;96.80;95454.44;5079071;28;20040;-73
2021/09/23 07:04:10;;;;;;;6.47;3.75;;;;;;;9.59;94.94;95454.47;5073237;28;20784;-73
2021/09/23 07:07:02;;;;;;;7.97;3.90;;;;;;;9.63;94.91;95455.63;5073523;28;20131;-73
2021/09/23 07:09:35;;;;;;;6.20;3.85;;;;;;;9.73;95.35;95451.56;5079822;28;20464;-72
2021/09/23 07:12:11;;;;;;;16.77;6.22;;;;;;;9.85;94.86;95448.28;5068190;28;20040;-73
2021/09/23 07:14:37;;;;;;;8.88;3.67;;;;;;;10.01;94.16;95463.41;5071242;28;20051;-73
2021/09/23 07:17:04;;;;;;;6.18;3.53;;;;;;;9.98;93.05;95469.03;5073235;28;20056;-73
2021/09/23 07:19:32;;;;;;;8.73;4.10;;;;;;;10.08;93.54;95455.53;5068710;28;20521;-73
2021/09/23 07:21:59;;;;;;;8.07;4.20;;;;;;;10.17;93.41;95450.84;5081609;28;20047;-73
2021/09/23 07:24:26;;;;;;;5.05;3.72;;;;;;;10.34;92.00;95451.94;5074028;28;20603;-73
2021/09/23 07:26:53;;;;;;;4.88;3.30;;;;;;;10.52;89.47;95449.38;5076638;28;20093;-73
2021/09/23 07:29:20;;;;;;;6.82;3.45;;;;;;;10.87;87.24;95450.63;5081241;28;20036;-73
2021/09/23 07:31:47;;;;;;;6.90;4.05;;;;;;;11.20;87.22;95442.44;5070959;28;20041;-72
2021/09/23 07:34:14;;;;;;;5.90;3.90;;;;;;;11.66;87.10;95433.19;5075257;28;20540;-74
2021/09/23 07:36:41;;;;;;;6.10;3.45;;;;;;;11.64;82.88;95434.44;5072043;28;20040;-73
2021/09/23 07:39:09;;;;;;;4.88;2.53;;;;;;;11.40;82.00;95429.16;5078822;28;20062;-73
2021/09/23 07:41:37;;;;;;;9.13;4.50;;;;;;;11.17;82.84;95419.41;5080944;28;20044;-73
2021/09/23 07:44:06;;;;;;;8.02;4.82;;;;;;;11.14;84.74;95430.28;5074053;28;20044;-72
2021/09/23 07:46:34;;;;;;;10.77;4.90;;;;;;;11.31;85.16;95434.88;5072712;28;20056;-72
2021/09/23 07:49:02;;;;;;;6.85;4.47;;;;;;;11.48;84.77;95426.22;5081599;28;20066;-73
2021/09/23 07:51:28;;;;;;;5.60;3.33;;;;;;;11.70;82.01;95432.75;5070267;28;20041;-71
2021/09/23 07:53:56;;;;;;;8.15;3.55;;;;;;;11.77;82.52;95431.63;5076529;28;20150;-72
2021/09/23 07:56:23;;;;;;;5.82;3.47;;;;;;;11.91;81.19;95427.06;5073250;28;20568;-72
2021/09/23 07:58:50;;;;;;;5.65;3.05;;;;;;;12.00;79.02;95433.53;5080732;28;20093;-71
2021/09/23 08:01:17;;;;;;;5.40;3.65;;;;;;;12.20;78.44;95428.00;5079349;28;20123;-71
2021/09/23 08:03:50;;;;;;;8.65;4.20;;;;;;;12.21;78.39;95431.41;5079484;28;20048;-71
2021/09/23 08:06:17;;;;;;;7.30;4.63;;;;;;;12.03;76.97;95419.25;5081996;28;20047;-72
2021/09/23 08:08:44;;;;;;;6.35;3.80;;;;;;;12.13;77.45;95439.56;5080764;28;20055;-72
2021/09/23 08:11:11;;;;;;;7.72;4.22;;;;;;;12.20;76.29;95432.44;5081936;28;20791;-72
2021/09/23 08:13:40;;;;;;;5.97;3.60;;;;;;;12.08;75.61;95444.66;5072765;28;20047;-71
2021/09/23 08:16:07;;;;;;;6.85;4.32;;;;;;;12.24;76.67;95444.00;5078451;28;20059;-72
2021/09/23 08:19:12;;;;;;;6.68;4.03;;;;;;;12.46;75.74;95448.66;5069505;28;20474;-73
2021/09/23 08:21:55;;;;;;;7.30;3.65;;;;;;;12.68;74.66;95439.25;5076117;28;20569;-70
2021/09/23 08:24:22;;;;;;;14.18;9.40;;;;;;;12.74;73.55;95451.38;5076447;28;20040;-73
2021/09/23 08:26:49;;;;;;;8.18;5.47;;;;;;;12.72;72.86;95447.44;5076551;28;20056;-73
2021/09/23 08:29:16;;;;;;;7.30;4.47;;;;;;;12.62;72.63;95448.81;5079177;28;20044;-71
2021/09/23 08:31:44;;;;;;;6.13;4.05;;;;;;;12.73;72.55;95452.44;5074322;28;20032;-71
2021/09/23 08:34:11;;;;;;;8.55;4.20;;;;;;;12.79;73.14;95450.72;5077828;28;20041;-71
2021/09/23 08:36:38;;;;;;;8.05;4.03;;;;;;;12.87;72.72;95457.41;5076069;28;20045;-71
2021/09/23 08:39:07;;;;;;;5.65;3.78;;;;;;;12.64;71.06;95427.66;5075106;28;20101;-74
2021/09/23 08:41:34;;;;;;;7.22;3.50;;;;;;;12.85;69.79;95444.56;5074084;28;20071;-73
2021/09/23 08:44:02;;;;;;;6.70;3.20;;;;;;;12.89;67.41;95442.28;5074699;28;20040;-73
2021/09/23 08:46:33;;;;;;;10.50;5.47;;;;;;;13.12;66.37;95439.63;5078037;28;20126;-73
2021/09/23 08:49:02;;;;;;;3.95;2.90;;;;;;;13.31;64.48;95447.34;5075591;28;20494;-72
2021/09/23 08:51:38;;;;;;;4.55;3.13;;;;;;;13.65;64.39;95444.81;5071963;28;20464;-72
2021/09/23 08:54:07;;;;;;;4.82;2.88;;;;;;;13.87;63.64;95442.31;5073624;28;20518;-73
2021/09/23 08:56:34;;;;;;;5.90;3.50;;;;;;;14.17;63.27;95447.28;5078220;28;20043;-71
2021/09/23 08:59:02;;;;;;;4.22;2.90;;;;;;;14.30;63.08;95446.16;5072523;28;20098;-73
2021/09/23 09:01:45;;;;;;;8.98;4.05;;;;;;;14.48;62.01;95414.44;5107857;27;20033;-73
2021/09/23 09:04:33;;;;;;;4.70;2.80;;;;;;;14.69;61.69;95446.22;5095300;28;20048;-73
2021/09/23 09:07:32;;;;;;;5.78;3.00;;;;;;;14.28;59.49;95435.91;5052399;28;20055;-73
2021/09/23 09:10:10;;;;;;;4.40;2.83;;;;;;;14.02;60.26;95426.06;5077948;28;20051;-72
2021/09/23 09:12:41;;;;;;;4.18;2.50;;;;;;;14.33;62.59;95438.63;5076365;28;20102;-72
2021/09/23 09:15:09;;;;;;;2.97;2.30;;;;;;;14.61;57.64;95434.31;5072411;28;20037;-72
2021/09/23 09:17:37;;;;;;;4.07;1.88;;;;;;;14.61;54.60;95423.81;5073522;28;20156;-72
2021/09/23 09:20:07;;;;;;;3.95;2.17;;;;;;;15.01;56.68;95428.00;5071615;28;20473;-73
2021/09/23 09:22:36;;;;;;;3.47;2.13;;;;;;;15.18;52.29;95442.88;5078749;28;20043;-73
2021/09/23 09:25:09;;;;;;;3.17;2.40;;;;;;;15.29;52.00;95431.50;5076950;28;20051;-72
2021/09/23 09:27:40;;;;;;;2.92;2.13;;;;;;;15.41;52.53;95421.66;5077256;28;20410;-72
2021/09/23 09:30:14;;;;;;;3.45;2.30;;;;;;;15.10;54.44;95431.78;5069480;28;20040;-72
2021/09/23 09:32:42;;;;;;;3.28;2.08;;;;;;;14.56;54.64;95426.34;5073853;28;20057;-71
2021/09/23 09:35:20;;;;;;;3.25;2.20;;;;;;;14.78;54.39;95433.47;5074262;28;20040;-71
2021/09/23 09:37:50;;;;;;;4.45;2.42;;;;;;;15.03;53.29;95407.56;5110586;27;20744;-72
2021/09/23 09:40:20;;;;;;;2.97;1.85;;;;;;;15.10;50.90;95425.75;5077504;28;20056;-72
2021/09/23 09:42:51;;;;;;;3.08;1.85;;;;;;;15.18;52.81;95421.91;5076573;28;20041;-72
2021/09/23 09:45:23;;;;;;;3.53;1.77;;;;;;;15.23;50.30;95408.84;5059226;28;20421;-73
2021/09/23 09:47:53;;;;;;;2.47;1.92;;;;;;;15.30;51.60;95414.69;5079858;28;20044;-73
2021/09/23 09:50:30;;;;;;;4.18;2.70;;;;;;;15.41;53.00;95412.97;5075004;28;20056;-73
2021/09/23 09:53:01;;;;;;;4.43;2.80;;;;;;;15.92;52.01;95405.63;5072981;28;20531;-72
2021/09/23 09:55:43;;;;;;;5.40;2.33;;;;;;;15.81;51.10;95415.25;5074925;28;20049;-72
2021/09/23 09:58:13;;;;;;;3.92;2.92;;;;;;;16.21;50.94;95419.25;5071539;28;20063;-72
2021/09/23 10:00:41;;;;;;;3.15;1.83;;;;;;;16.34;47.72;95398.81;5104712;27;20603;-71
2021/09/23 10:03:09;;;;;;;3.17;1.90;;;;;;;16.27;47.18;95406.13;5073322;28;20036;-71
2021/09/23 10:05:43;;;;;;;3.35;2.55;;;;;;;16.22;48.62;95410.31;5079821;28;20067;-72
2021/09/23 10:08:12;;;;;;;3.72;2.30;;;;;;;16.37;48.14;95411.47;5072744;28;20058;-71
2021/09/23 10:10:41;;;;;;;3.50;2.40;;;;;;;15.97;48.92;95418.81;5072965;28;20445;-71
2021/09/23 10:13:10;;;;;;;3.70;2.22;;;;;;;16.00;49.62;95412.25;5076775;28;20089;-72
2021/09/23 10:15:37;;;;;;;4.40;2.60;;;;;;;16.40;48.28;95410.94;5072028;28;20056;-72
2021/09/23 10:18:05;;;;;;;3.47;2.08;;;;;;;17.14;44.86;95419.78;5073169;28;20521;-72
2021/09/23 10:20:37;;;;;;;3.40;2.13;;;;;;;17.71;44.33;95408.34;5071947;28;20044;-71
2021/09/23 10:23:06;;;;;;;3.22;1.77;;;;;;;17.76;43.44;95400.44;5072631;28;20101;-71
2021/09/23 10:25:35;;;;;;;2.88;2.05;;;;;;;17.45;44.04;95404.06;5075328;28;20044;-71
2021/09/23 10:28:07;;;;;;;3.63;2.17;;;;;;;17.69;45.15;95397.28;5074753;28;20058;-72
2021/09/23 10:30:43;;;;;;;3.25;2.28;;;;;;;17.53;43.14;95412.25;5071834;28;20579;-71
2021/09/23 10:33:17;;;;;;;2.22;1.67;;;;;;;17.60;42.64;95408.59;5067889;28;20418;-71
2021/09/23 10:35:44;;;;;;;3.55;2.17;;;;;;;17.99;42.79;95418.66;5072161;28;20048;-72
2021/09/23 10:38:20;;;;;;;2.85;2.00;;;;;;;18.05;42.11;95407.09;5066801;28;20044;-72
2021/09/23 10:40:47;;;;;;;2.63;1.67;;;;;;;18.60;40.11;95412.56;5073486;28;20059;-72
2021/09/23 10:43:18;;;;;;;5.63;2.85;;;;;;;18.21;40.49;95394.69;5069862;28;20068;-72
2021/09/23 10:45:53;;;;;;;3.05;2.30;;;;;;;18.47;40.79;95403.34;5067229;28;20489;-72
2021/09/23 10:48:23;;;;;;;4.10;2.58;;;;;;;18.60;40.17;95407.28;5070129;28;20048;-72
2021/09/23 10:50:50;;;;;;;3.00;2.22;;;;;;;18.20;40.56;95398.38;5069775;28;20123;-72
2021/09/23 10:53:19;;;;;;;4.95;2.13;;;;;;;18.45;41.53;95400.19;5066374;28;20185;-72
2021/09/23 10:56:19;;;;;;;2.95;2.35;;;;;;;18.82;41.67;95409.66;5068959;28;20395;-71
2021/09/23 10:58:49;;;;;;;3.63;2.70;;;;;;;18.71;39.23;95406.22;5070388;28;20048;-71
2021/09/23 11:01:25;;;;;;;3.15;2.22;;;;;;;19.20;39.46;95405.53;5077702;28;20039;-71
2021/09/23 11:03:56;;;;;;;4.78;2.92;;;;;;;19.47;39.33;95409.63;5072448;28;20571;-71
2021/09/23 11:06:35;;;;;;;3.67;2.25;;;;;;;19.33;38.07;95406.00;5077840;28;20039;-71
2021/09/23 11:09:21;;;;;;;3.75;2.25;;;;;;;19.23;38.31;95415.56;5081324;28;20046;-71
2021/09/23 11:12:00;;;;;;;3.55;2.45;;;;;;;19.32;37.74;95412.34;5072662;28;20056;-71
2021/09/23 11:14:28;;;;;;;3.95;2.63;;;;;;;19.52;37.90;95385.84;5079362;28;20068;-71
2021/09/23 11:16:58;;;;;;;2.53;2.00;;;;;;;19.55;38.55;95395.84;5078486;28;20132;-71
2021/09/23 11:19:27;;;;;;;3.63;1.73;;;;;;;19.72;37.45;95384.13;5074470;28;20043;-71
2021/09/23 11:21:57;;;;;;;2.90;2.20;;;;;;;19.46;38.38;95413.31;5076580;28;20462;-71
2021/09/23 11:24:27;;;;;;;4.78;2.70;;;;;;;19.33;38.35;95390.16;5072825;28;20079;-71
2021/09/23 11:26:56;;;;;;;3.65;1.95;;;;;;;19.58;37.66;95395.28;5071788;28;20147;-71
2021/09/23 11:29:24;;;;;;;3.15;2.15;;;;;;;19.05;37.98;95397.66;5072862;28;20071;-71
2021/09/23 11:31:56;;;;;;;4.28;2.30;;;;;;;18.80;38.33;95396.69;5071704;28;20047;-71
2021/09/23 11:34:37;;;;;;;4.03;2.65;;;;;;;18.95;38.24;95393.22;5104340;28;20052;-70
2021/09/23 11:37:08;;;;;;;3.75;2.00;;;;;;;19.53;38.03;95392.69;5071444;28;20060;-70
2021/09/23 11:39:50;;;;;;;;;;;;;;;19.48;38.26;95384.78;5068836;28;20051;-70
2021/09/23 11:42:21;;;;;;;2.38;2.03;;;;;;;19.67;37.54;95393.66;5069920;28;20003;-71
2021/09/23 11:44:50;;;;;;;3.35;2.00;;;;;;;19.68;37.76;95384.66;5071125;28;20066;-71